Time;durP1;ratioP1;P1;durP2;ratioP2;P2;SDS_P1;SDS_P2;PMS_P1;PMS_P2;Temp;Humidity;BMP_temperature;BMP_pressure;BME280_temperature;BME280_humidity;BME280_pressure;Samples;Min_cycle;Max_cycle;Signal;HPM_P1;HPM_P2
2020/12/30 00:01:05;;;;;;;3.23;2.93;;;3.60;99.90;;;;;;5070573;28;20533;-76
2020/12/30 00:03:34;;;;;;;3.23;2.33;;;3.60;99.90;;;;;;5070380;28;20453;-76
2020/12/30 00:06:00;;;;;;;2.57;2.37;;;3.60;99.90;;;;;;5069405;28;20791;-77
2020/12/30 00:08:26;;;;;;;5.37;3.33;;;3.60;99.90;;;;;;5070624;28;20442;-76
2020/12/30 00:10:54;;;;;;;4.30;3.07;;;3.50;99.90;;;;;;5070167;28;20460;-77
2020/12/30 00:13:20;;;;;;;3.20;2.40;;;3.50;99.90;;;;;;5070697;28;20539;-76
2020/12/30 00:15:46;;;;;;;3.37;2.60;;;3.40;99.90;;;;;;5069498;28;20537;-77
2020/12/30 00:18:13;;;;;;;5.93;2.70;;;3.50;99.90;;;;;;5070237;28;21021;-78
2020/12/30 00:20:39;;;;;;;4.50;2.30;;;3.50;99.90;;;;;;5070041;28;20532;-77
2020/12/30 00:23:06;;;;;;;3.33;2.80;;;3.60;99.90;;;;;;5070448;28;20490;-77
2020/12/30 00:25:32;;;;;;;2.70;2.50;;;3.50;99.90;;;;;;5070023;28;20449;-77
2020/12/30 00:27:59;;;;;;;3.37;2.40;;;3.60;99.90;;;;;;5076173;28;20444;-77
2020/12/30 00:30:26;;;;;;;3.20;2.57;;;3.60;99.90;;;;;;5090865;28;20476;-76
2020/12/30 00:32:52;;;;;;;3.20;2.10;;;3.60;99.90;;;;;;5090300;28;20701;-77
2020/12/30 00:35:18;;;;;;;3.83;3.20;;;3.70;99.90;;;;;;5090193;28;20526;-76
2020/12/30 00:37:45;;;;;;;2.50;2.30;;;3.70;99.90;;;;;;5090082;28;20625;-76
2020/12/30 00:40:12;;;;;;;2.93;2.63;;;3.70;99.90;;;;;;5090442;28;20491;-76
2020/12/30 00:42:39;;;;;;;3.27;2.17;;;3.60;99.90;;;;;;5090440;28;20460;-75
2020/12/30 00:45:09;;;;;;;2.37;2.17;;;3.60;99.90;;;;;;5095380;28;20973;-77
2020/12/30 00:47:35;;;;;;;2.80;2.33;;;3.50;99.90;;;;;;5103507;28;20458;-77
2020/12/30 00:50:02;;;;;;;6.13;2.83;;;3.40;99.90;;;;;;5099573;28;20531;-76
2020/12/30 00:52:28;;;;;;;3.73;2.63;;;3.30;99.90;;;;;;5093020;28;20506;-76
2020/12/30 00:54:55;;;;;;;3.30;2.90;;;3.40;99.90;;;;;;5089604;28;20472;-75
2020/12/30 00:57:21;;;;;;;2.90;2.20;;;3.30;99.90;;;;;;5090412;28;20512;-76
2020/12/30 00:59:48;;;;;;;3.27;2.40;;;3.50;99.90;;;;;;5088870;28;20532;-76
2020/12/30 01:02:15;;;;;;;3.83;2.37;;;3.40;99.90;;;;;;5070163;28;20528;-75
2020/12/30 01:04:42;;;;;;;3.20;2.03;;;3.40;99.90;;;;;;5069028;28;20933;-75
2020/12/30 01:07:08;;;;;;;3.63;2.73;;;3.40;99.90;;;;;;5070009;28;20453;-75
2020/12/30 01:09:35;;;;;;;3.97;2.47;;;3.50;99.90;;;;;;5069847;28;20450;-76
2020/12/30 01:12:02;;;;;;;2.50;2.30;;;3.70;99.90;;;;;;5069579;28;20528;-76
2020/12/30 01:14:29;;;;;;;2.93;2.00;;;3.80;99.90;;;;;;5069448;28;20503;-76
2020/12/30 01:16:55;;;;;;;3.07;2.73;;;3.80;99.90;;;;;;5069357;28;20531;-75
2020/12/30 01:19:23;;;;;;;2.40;2.20;;;3.90;99.90;;;;;;5072734;28;20958;-75
2020/12/30 01:21:49;;;;;;;2.60;2.07;;;3.80;99.90;;;;;;5073195;28;20524;-77
2020/12/30 01:24:16;;;;;;;2.80;1.93;;;3.60;99.90;;;;;;5073007;28;20548;-76
2020/12/30 01:26:45;;;;;;;2.33;1.83;;;3.60;99.90;;;;;;5072856;28;20488;-76
2020/12/30 01:29:12;;;;;;;2.70;2.03;;;3.60;99.90;;;;;;5073514;28;20492;-76
2020/12/30 01:31:38;;;;;;;4.40;2.10;;;3.80;99.90;;;;;;5072729;28;20528;-75
2020/12/30 01:34:06;;;;;;;2.17;1.83;;;3.60;99.90;;;;;;5072643;28;20445;-76
2020/12/30 01:36:35;;;;;;;2.77;2.57;;;3.50;99.90;;;;;;5072857;28;21099;-76
2020/12/30 01:39:01;;;;;;;3.33;2.03;;;3.60;99.90;;;;;;5072473;28;20579;-76
2020/12/30 01:41:28;;;;;;;3.97;2.30;;;3.40;99.90;;;;;;5073118;28;20569;-76
2020/12/30 01:44:02;;;;;;;3.17;2.17;;;3.50;99.90;;;;;;5072094;28;20537;-75
2020/12/30 01:46:38;;;;;;;4.60;2.00;;;3.70;99.90;;;;;;5072984;28;20818;-76
2020/12/30 01:49:10;;;;;;;2.27;1.93;;;3.90;95.60;;;;;;5072809;28;20488;-76
2020/12/30 01:51:40;;;;;;;2.03;1.80;;;4.00;51.70;;;;;;5072820;28;20863;-77
2020/12/30 01:54:08;;;;;;;1.77;1.60;;;4.00;44.00;;;;;;5072500;28;20575;-76
2020/12/30 01:56:35;;;;;;;2.37;1.97;;;3.90;42.20;;;;;;5072595;28;20979;-76
2020/12/30 01:59:06;;;;;;;2.07;1.73;;;4.00;56.10;;;;;;5072339;28;20523;-76
2020/12/30 02:01:36;;;;;;;2.20;1.43;;;4.00;26.40;;;;;;5072408;28;20452;-76
2020/12/30 02:04:04;;;;;;;3.57;2.63;;;4.20;1.00;;;;;;5072098;28;20484;-76
2020/12/30 02:06:32;;;;;;;2.90;2.00;;;4.10;1.00;;;;;;5072547;28;20464;-76
2020/12/30 02:09:00;;;;;;;6.03;2.67;;;4.20;1.00;;;;;;5072165;28;20453;-77
2020/12/30 02:11:27;;;;;;;2.83;2.00;;;4.10;1.00;;;;;;5072443;28;20953;-76
2020/12/30 02:14:03;;;;;;;4.20;2.00;;;4.20;1.00;;;;;;5071737;28;20533;-75
2020/12/30 02:16:29;;;;;;;2.40;1.80;;;4.20;1.00;;;;;;5072278;28;20480;-76
2020/12/30 02:18:56;;;;;;;4.90;2.00;;;4.20;1.00;;;;;;5072041;28;20547;-76
2020/12/30 02:21:22;;;;;;;2.53;1.90;;;4.30;1.00;;;;;;5072228;28;20530;-76
2020/12/30 02:23:51;;;;;;;2.00;1.50;;;4.10;1.00;;;;;;5071470;28;20464;-76
2020/12/30 02:26:18;;;;;;;2.70;1.83;;;4.10;1.00;;;;;;5071901;28;20469;-75
2020/12/30 02:28:44;;;;;;;1.87;1.70;;;4.10;1.00;;;;;;5071896;28;20484;-76
2020/12/30 02:31:11;;;;;;;1.90;1.73;;;4.10;1.00;;;;;;5072204;28;20540;-76
2020/12/30 02:33:37;;;;;;;1.93;1.40;;;4.20;1.00;;;;;;5071697;28;20449;-76
2020/12/30 02:36:04;;;;;;;4.20;1.60;;;4.20;1.00;;;;;;5072006;28;20803;-76
2020/12/30 02:38:30;;;;;;;2.00;1.87;;;4.20;1.00;;;;;;5071892;28;20477;-76
2020/12/30 02:41:00;;;;;;;2.90;1.80;;;4.10;1.00;;;;;;5071376;28;20445;-74
2020/12/30 02:43:28;;;;;;;1.97;1.87;;;4.20;1.00;;;;;;5071499;28;20438;-75
2020/12/30 02:45:54;;;;;;;1.70;1.60;;;4.20;1.00;;;;;;5071387;28;20953;-76
2020/12/30 02:48:20;;;;;;;2.80;1.57;;;4.20;1.00;;;;;;5071845;28;20516;-76
2020/12/30 02:50:47;;;;;;;1.60;1.50;;;4.20;1.00;;;;;;5071525;28;20528;-76
2020/12/30 02:53:14;;;;;;;1.40;1.30;;;4.20;1.00;;;;;;5071734;28;20653;-76
2020/12/30 02:55:40;;;;;;;1.83;1.33;;;4.30;1.00;;;;;;5070909;28;20478;-76
2020/12/30 02:58:06;;;;;;;2.50;1.60;;;4.30;1.00;;;;;;5071667;28;20494;-76
2020/12/30 03:00:34;;;;;;;4.20;1.70;;;4.30;1.00;;;;;;5071841;28;20441;-76
2020/12/30 03:03:00;;;;;;;2.70;1.60;;;4.30;1.00;;;;;;5071186;28;20620;-76
2020/12/30 03:05:26;;;;;;;1.50;1.40;;;4.40;1.00;;;;;;5070928;28;20453;-78
2020/12/30 03:07:53;;;;;;;2.67;1.47;;;4.30;1.00;;;;;;5070958;28;20536;-76
2020/12/30 03:10:19;;;;;;;2.43;2.23;;;4.40;1.00;;;;;;5071227;28;20534;-75
2020/12/30 03:12:45;;;;;;;3.53;1.73;;;4.30;1.00;;;;;;5071085;28;20494;-75
2020/12/30 03:15:12;;;;;;;2.50;1.80;;;4.40;1.00;;;;;;5070942;28;20484;-75
2020/12/30 03:17:39;;;;;;;1.67;1.57;;;4.40;1.00;;;;;;5070516;28;20489;-74
2020/12/30 03:20:05;;;;;;;1.27;1.17;;;4.40;1.00;;;;;;5071085;28;20533;-78
2020/12/30 03:22:32;;;;;;;2.07;1.40;;;4.40;1.00;;;;;;5085615;28;20530;-76
2020/12/30 03:24:58;;;;;;;1.60;1.50;;;4.40;1.00;;;;;;5090287;28;20448;-76
2020/12/30 03:27:25;;;;;;;1.60;1.37;;;4.40;1.00;;;;;;5091317;28;20460;-76
2020/12/30 03:29:51;;;;;;;1.40;1.30;;;4.40;1.00;;;;;;5091163;28;20540;-76
2020/12/30 03:32:17;;;;;;;1.17;1.07;;;4.20;1.00;;;;;;5091097;28;20569;-75
2020/12/30 03:34:44;;;;;;;2.37;1.80;;;4.40;1.00;;;;;;5090365;28;20563;-78
2020/12/30 03:37:11;;;;;;;1.73;1.50;;;4.40;1.00;;;;;;5090776;28;20571;-76
2020/12/30 03:39:37;;;;;;;1.57;1.20;;;4.30;1.00;;;;;;5091300;28;20501;-75
2020/12/30 03:42:06;;;;;;;2.60;1.67;;;4.20;1.00;;;;;;5090646;28;20472;-75
2020/12/30 03:44:32;;;;;;;1.90;1.57;;;4.00;35.40;;;;;;5090454;28;20499;-76
2020/12/30 03:46:59;;;;;;;4.27;1.33;;;3.90;99.90;;;;;;5090289;28;20531;-76
2020/12/30 03:49:25;;;;;;;1.77;1.30;;;3.90;99.90;;;;;;5090795;28;20925;-76
2020/12/30 03:51:52;;;;;;;2.70;1.30;;;3.80;99.90;;;;;;5090462;28;20564;-75
2020/12/30 03:54:19;;;;;;;1.67;1.30;;;3.70;99.90;;;;;;5090423;28;21116;-78
2020/12/30 03:56:45;;;;;;;4.13;1.50;;;3.80;99.90;;;;;;5090420;28;20919;-76
2020/12/30 03:59:12;;;;;;;2.73;1.60;;;3.80;99.90;;;;;;5090660;28;20548;-76
2020/12/30 04:01:38;;;;;;;1.90;1.50;;;3.80;99.90;;;;;;5073961;28;20466;-74
2020/12/30 04:04:04;;;;;;;1.73;1.27;;;3.80;99.90;;;;;;5070242;28;20571;-76
2020/12/30 04:06:32;;;;;;;2.30;2.10;;;3.70;99.90;;;;;;5070295;28;20461;-75
2020/12/30 04:08:59;;;;;;;1.67;1.57;;;3.60;99.90;;;;;;5070261;28;20445;-75
2020/12/30 04:11:26;;;;;;;3.13;1.97;;;3.60;99.90;;;;;;5070623;28;20453;-77
2020/12/30 04:13:53;;;;;;;2.40;1.43;;;3.50;99.90;;;;;;5070001;28;20864;-76
2020/12/30 04:16:22;;;;;;;2.37;1.70;;;3.50;99.90;;;;;;5070477;28;20571;-75
2020/12/30 04:18:49;;;;;;;2.37;1.70;;;3.40;99.90;;;;;;5070337;28;20850;-75
2020/12/30 04:21:19;;;;;;;4.13;1.60;;;3.20;99.90;;;;;;5070200;28;20998;-75
2020/12/30 04:23:46;;;;;;;2.20;1.50;;;3.20;99.90;;;;;;5069824;28;21090;-75
2020/12/30 04:26:13;;;;;;;1.80;1.67;;;3.10;99.90;;;;;;5070608;28;20446;-75
2020/12/30 04:28:40;;;;;;;4.03;1.60;;;3.00;99.90;;;;;;5070249;28;20455;-75
2020/12/30 04:31:10;;;;;;;1.53;1.43;;;2.90;99.90;;;;;;5077175;28;20503;-75
2020/12/30 04:33:36;;;;;;;1.63;1.53;;;2.90;99.90;;;;;;5084017;28;20441;-76
2020/12/30 04:36:03;;;;;;;2.47;1.60;;;2.90;99.90;;;;;;5087042;28;21038;-74
2020/12/30 04:38:31;;;;;;;1.83;1.40;;;2.80;99.90;;;;;;5076741;28;20499;-75
2020/12/30 04:40:58;;;;;;;1.67;1.47;;;2.80;99.90;;;;;;5069784;28;20455;-73
2020/12/30 04:43:27;;;;;;;1.57;1.47;;;2.90;99.90;;;;;;5070091;28;20590;-74
2020/12/30 04:45:55;;;;;;;2.17;1.20;;;3.00;99.90;;;;;;5069680;28;20480;-74
2020/12/30 04:48:22;;;;;;;1.70;1.43;;;2.90;99.90;;;;;;5070515;28;20533;-76
2020/12/30 04:50:48;;;;;;;3.37;1.53;;;2.80;99.90;;;;;;5069890;28;20485;-74
2020/12/30 04:53:15;;;;;;;1.83;1.30;;;2.80;99.90;;;;;;5071133;28;20523;-75
2020/12/30 04:55:42;;;;;;;1.83;1.50;;;2.90;99.90;;;;;;5073357;28;20557;-76
2020/12/30 04:58:09;;;;;;;1.33;1.23;;;2.90;99.90;;;;;;5073670;28;20485;-76
2020/12/30 05:00:37;;;;;;;2.10;1.60;;;3.00;99.90;;;;;;5073636;28;20473;-76
2020/12/30 05:03:07;;;;;;;3.23;2.40;;;3.00;99.90;;;;;;5073940;28;20528;-77
2020/12/30 05:05:35;;;;;;;3.57;1.90;;;3.00;99.90;;;;;;5073292;28;20894;-77
2020/12/30 05:08:01;;;;;;;2.17;1.97;;;2.90;99.90;;;;;;5073189;28;20531;-75
2020/12/30 05:10:28;;;;;;;4.00;1.90;;;2.80;99.90;;;;;;5073537;28;20950;-74
2020/12/30 05:12:54;;;;;;;1.60;1.50;;;2.80;99.90;;;;;;5072974;28;20453;-74
2020/12/30 05:15:21;;;;;;;1.90;1.77;;;2.90;99.90;;;;;;5073263;28;20469;-76
2020/12/30 05:17:52;;;;;;;2.60;2.40;;;2.80;99.90;;;;;;5073036;28;20484;-74
2020/12/30 05:20:18;;;;;;;1.40;1.30;;;2.80;99.90;;;;;;5073470;28;20448;-74
2020/12/30 05:22:46;;;;;;;1.80;1.70;;;2.80;99.90;;;;;;5072820;28;20952;-77
2020/12/30 05:25:12;;;;;;;6.37;1.77;;;2.70;99.90;;;;;;5073258;28;20441;-76
2020/12/30 05:27:39;;;;;;;2.23;1.77;;;2.60;99.90;;;;;;5072709;28;20807;-76
2020/12/30 05:30:05;;;;;;;1.60;1.50;;;2.70;99.90;;;;;;5073490;28;20532;-75
2020/12/30 05:32:35;;;;;;;1.97;1.43;;;2.80;99.90;;;;;;5073060;28;20529;-77
2020/12/30 05:35:03;;;;;;;2.00;1.60;;;2.90;99.90;;;;;;5072468;28;20456;-74
2020/12/30 05:37:32;;;;;;;2.20;2.00;;;2.90;99.90;;;;;;5073072;28;20567;-74
2020/12/30 05:39:59;;;;;;;1.97;1.70;;;3.00;99.90;;;;;;5072619;28;20518;-77
2020/12/30 05:42:25;;;;;;;2.10;1.70;;;3.00;99.90;;;;;;5072955;28;20516;-74
2020/12/30 05:44:54;;;;;;;3.30;1.70;;;3.10;99.90;;;;;;5072540;28;20528;-74
2020/12/30 05:47:22;;;;;;;1.60;1.50;;;3.10;99.90;;;;;;5072935;28;20499;-74
2020/12/30 05:49:50;;;;;;;1.87;1.53;;;3.00;99.90;;;;;;5072999;28;20453;-76
2020/12/30 05:52:19;;;;;;;3.93;1.40;;;3.10;99.90;;;;;;5072610;28;20447;-74
2020/12/30 05:54:48;;;;;;;2.30;1.50;;;3.10;99.90;;;;;;5071668;28;20568;-77
2020/12/30 05:57:25;;;;;;;1.60;1.20;;;3.10;99.90;;;;;;5072669;28;20572;-77
2020/12/30 05:59:54;;;;;;;4.17;1.63;;;3.10;99.90;;;;;;5072366;28;20452;-77
2020/12/30 06:02:26;;;;;;;1.57;1.47;;;3.10;99.90;;;;;;5072804;28;20442;-76
2020/12/30 06:04:53;;;;;;;2.40;1.33;;;3.10;99.90;;;;;;5071678;28;20515;-77
2020/12/30 06:07:20;;;;;;;3.87;1.83;;;3.10;99.90;;;;;;5072492;28;20511;-76
2020/12/30 06:09:52;;;;;;;5.30;2.07;;;3.20;99.90;;;;;;5072053;28;20514;-76
2020/12/30 06:12:27;;;;;;;1.67;0.80;;;3.20;99.90;;;;;;5072385;28;20541;-76
2020/12/30 06:14:54;;;;;;;2.90;1.60;;;3.20;99.90;;;;;;5071823;28;20455;-76
2020/12/30 06:17:28;;;;;;;1.70;1.53;;;3.30;99.90;;;;;;5072139;28;20477;-76
2020/12/30 06:19:55;;;;;;;2.60;1.43;;;3.20;99.90;;;;;;5071671;28;20532;-76
2020/12/30 06:22:23;;;;;;;1.50;1.40;;;3.20;99.90;;;;;;5072257;28;20540;-74
2020/12/30 06:24:53;;;;;;;4.83;1.30;;;3.30;99.90;;;;;;5071568;28;20580;-77
2020/12/30 06:27:25;;;;;;;1.83;1.50;;;3.30;99.90;;;;;;5072116;28;20528;-74
2020/12/30 06:29:56;;;;;;;1.50;1.30;;;3.50;99.90;;;;;;5071779;28;20458;-77
2020/12/30 06:32:31;;;;;;;2.60;1.40;;;3.40;99.90;;;;;;5072370;28;20446;-75
2020/12/30 06:34:59;;;;;;;2.30;1.57;;;3.50;99.90;;;;;;5071347;28;20473;-77
2020/12/30 06:37:30;;;;;;;1.27;1.00;;;3.40;99.90;;;;;;5071951;28;20485;-77
2020/12/30 06:40:22;;;;;;;2.20;2.00;;;3.40;99.90;;;;;;5071576;28;20964;-77
2020/12/30 06:42:55;;;;;;;3.47;1.83;;;3.50;99.90;;;;;;5071772;28;20452;-77
2020/12/30 06:45:53;;;;;;;4.57;2.00;;;3.50;99.90;;;;;;5071638;28;20457;-77
2020/12/30 06:48:21;;;;;;;1.67;1.50;;;3.50;90.00;;;;;;5071801;28;20453;-77
2020/12/30 06:50:48;;;;;;;1.73;1.60;;;3.50;29.50;;;;;;5071178;28;21001;-76
2020/12/30 06:53:26;;;;;;;4.63;1.60;;;3.50;95.40;;;;;;5071170;28;20457;-76
2020/12/30 06:55:54;;;;;;;2.47;1.60;;;3.60;85.30;;;;;;5071577;28;20555;-76
2020/12/30 06:58:46;;;;;;;1.53;1.43;;;3.60;56.30;;;;;;5071285;28;20572;-76
2020/12/30 07:01:13;;;;;;;2.83;1.30;;;3.60;21.50;;;;;;5071432;28;20702;-76
2020/12/30 07:03:40;;;;;;;1.80;1.50;;;3.90;99.90;;;;;;5070365;28;20521;-76
2020/12/30 07:06:37;;;;;;;2.30;1.73;;;3.80;1.00;;;;;;5071592;28;20528;-76
2020/12/30 07:09:06;;;;;;;3.73;1.93;;;3.70;12.10;;;;;;5071430;28;20544;-76
2020/12/30 07:11:56;;;;;;;1.60;1.50;;;3.80;1.00;;;;;;5071188;28;20865;-77
2020/12/30 07:14:23;;;;;;;6.97;3.17;;;3.80;1.00;;;;;;5071225;28;20517;-77
2020/12/30 07:16:52;;;;;;;1.90;1.60;;;3.80;1.00;;;;;;5070566;28;20574;-77
2020/12/30 07:19:20;;;;;;;2.27;1.47;;;4.00;24.90;;;;;;5071272;28;20450;-76
2020/12/30 07:21:59;;;;;;;1.90;1.70;;;3.90;1.00;;;;;;5070613;28;20468;-76
2020/12/30 07:24:27;;;;;;;2.53;2.00;;;3.80;1.00;;;;;;5070338;28;20960;-76
2020/12/30 07:26:56;;;;;;;3.20;1.73;;;3.90;1.00;;;;;;5070809;28;20535;-75
2020/12/30 07:29:23;;;;;;;3.07;1.43;;;3.90;1.00;;;;;;5070984;28;20449;-76
2020/12/30 07:31:52;;;;;;;3.90;1.90;;;3.80;1.00;;;;;;5070887;28;20445;-76
2020/12/30 07:34:20;;;;;;;4.20;1.90;;;3.80;1.00;;;;;;5070404;28;20536;-75
2020/12/30 07:36:47;;;;;;;1.80;1.50;;;3.80;1.00;;;;;;5070310;28;20516;-76
2020/12/30 07:39:15;;;;;;;3.80;2.60;;;3.70;1.00;;;;;;5070715;28;20487;-77
2020/12/30 07:41:45;;;;;;;2.50;1.80;;;3.70;1.00;;;;;;5070458;28;20856;-76
2020/12/30 07:44:13;;;;;;;5.20;2.30;;;3.80;1.00;;;;;;5070779;28;20541;-75
2020/12/30 07:46:39;;;;;;;3.93;2.40;;;3.80;1.00;;;;;;5070267;28;20529;-75
2020/12/30 07:49:10;;;;;;;1.97;1.80;;;3.80;1.00;;;;;;5070862;28;20540;-75
2020/12/30 07:51:44;;;;;;;3.40;1.70;;;3.80;1.00;;;;;;5070551;28;20457;-74
2020/12/30 07:54:14;;;;;;;2.70;2.13;;;3.80;1.00;;;;;;5070019;28;20484;-76
2020/12/30 07:56:40;;;;;;;2.23;1.90;;;3.80;1.00;;;;;;5070105;28;20453;-74
2020/12/30 07:59:07;;;;;;;2.33;1.47;;;3.80;1.00;;;;;;5070896;28;20506;-75
2020/12/30 08:01:34;;;;;;;3.10;2.27;;;3.80;1.00;;;;;;5070585;28;20940;-75
2020/12/30 08:04:06;;;;;;;4.53;3.00;;;3.90;1.00;;;;;;5070073;28;20460;-76
2020/12/30 08:06:43;;;;;;;4.40;1.90;;;3.90;1.00;;;;;;5070745;28;20456;-75
2020/12/30 08:09:09;;;;;;;2.20;1.83;;;3.90;1.00;;;;;;5070784;28;20449;-75
2020/12/30 08:11:36;;;;;;;1.97;1.73;;;4.00;1.00;;;;;;5070559;28;20459;-76
2020/12/30 08:14:09;;;;;;;4.03;1.50;;;4.00;1.00;;;;;;5069773;28;20446;-76
2020/12/30 08:16:35;;;;;;;1.73;1.50;;;4.00;1.00;;;;;;5077135;28;20526;-75
2020/12/30 08:19:02;;;;;;;4.07;1.47;;;4.00;1.00;;;;;;5083810;28;20465;-74
2020/12/30 08:21:28;;;;;;;2.60;1.63;;;4.00;1.00;;;;;;5085901;28;20450;-75
2020/12/30 08:24:06;;;;;;;1.50;1.40;;;4.10;1.00;;;;;;5076567;28;20567;-74
2020/12/30 08:26:36;;;;;;;6.57;1.70;;;4.30;1.00;;;;;;5070969;28;20461;-75
2020/12/30 08:29:03;;;;;;;3.57;1.67;;;4.20;99.90;;;;;;5074147;28;20464;-76
2020/12/30 08:31:43;;;;;;;1.93;1.67;;;4.20;99.90;;;;;;5074529;28;20533;-76
2020/12/30 08:34:12;;;;;;;2.30;1.70;;;4.20;99.90;;;;;;5074039;28;20548;-76
2020/12/30 08:36:41;;;;;;;5.13;1.67;;;4.40;99.90;;;;;;5074085;28;20889;-75
2020/12/30 08:39:08;;;;;;;2.30;1.47;;;4.50;99.90;;;;;;5074092;28;20847;-76
2020/12/30 08:41:47;;;;;;;2.30;2.10;;;4.50;99.90;;;;;;5074179;28;20488;-75
2020/12/30 08:44:19;;;;;;;1.73;1.23;;;4.50;82.50;;;;;;5073860;28;20476;-76
2020/12/30 08:46:49;;;;;;;1.73;1.40;;;4.50;1.00;;;;;;5073769;28;20523;-76
2020/12/30 08:49:18;;;;;;;4.00;2.40;;;4.60;99.90;;;;;;5073886;28;20441;-76
2020/12/30 08:51:44;;;;;;;1.33;1.07;;;4.80;1.00;;;;;;5073183;28;20961;-75
2020/12/30 08:54:14;;;;;;;2.07;1.30;;;4.80;99.90;;;;;;5073253;28;20499;-75
2020/12/30 08:56:42;;;;;;;1.53;1.30;;;5.00;1.00;;;;;;5073679;28;20520;-76
2020/12/30 08:59:08;;;;;;;1.10;0.93;;;5.00;1.00;;;;;;5073775;28;20548;-76
2020/12/30 09:01:35;;;;;;;1.90;1.47;;;5.10;1.00;;;;;;5073694;28;21020;-76
2020/12/30 09:04:12;;;;;;;1.80;1.40;;;5.30;1.00;;;;;;5072886;28;20490;-75
2020/12/30 09:06:41;;;;;;;2.70;1.30;;;5.30;99.90;;;;;;5073011;28;20445;-74
2020/12/30 09:09:09;;;;;;;1.70;1.13;;;5.30;1.00;;;;;;5073832;28;20449;-77
2020/12/30 09:11:37;;;;;;;1.63;1.10;;;5.60;99.90;;;;;;5073660;28;20441;-77
2020/12/30 09:14:17;;;;;;;2.43;1.20;;;7.40;99.90;;;;;;5072988;28;20496;-76
2020/12/30 09:16:54;;;;;;;2.50;1.10;;;7.30;1.00;;;;;;5071930;28;20560;-76
2020/12/30 09:19:22;;;;;;;1.30;1.10;;;7.40;99.90;;;;;;5073516;28;20528;-76
2020/12/30 09:21:48;;;;;;;2.93;1.60;;;7.10;1.00;;;;;;5073313;28;20547;-76
2020/12/30 09:24:15;;;;;;;2.70;1.30;;;7.40;99.90;;;;;;5072256;28;20544;-76
2020/12/30 09:26:41;;;;;;;1.70;1.10;;;6.40;1.00;;;;;;5072869;28;20445;-76
2020/12/30 09:29:22;;;;;;;1.97;1.30;;;6.40;99.90;;;;;;5073185;28;20536;-76
2020/12/30 09:31:53;;;;;;;2.60;1.33;;;6.00;99.90;;;;;;5070933;28;20536;-75
2020/12/30 09:34:19;;;;;;;1.10;0.70;;;5.90;99.90;;;;;;5072702;28;20984;-75
2020/12/30 09:36:54;;;;;;;3.87;1.30;;;6.50;99.90;;;;;;5072728;28;20529;-75
2020/12/30 09:39:20;;;;;;;1.43;1.17;;;6.90;16.00;;;;;;5072235;28;20522;-74
2020/12/30 09:41:47;;;;;;;1.40;1.20;;;6.60;1.00;;;;;;5072611;28;20564;-74
2020/12/30 09:44:13;;;;;;;1.20;1.10;;;6.50;99.90;;;;;;5072931;28;20564;-75
2020/12/30 09:46:49;;;;;;;1.87;1.07;;;6.00;99.90;;;;;;5072384;28;20958;-74
2020/12/30 09:49:16;;;;;;;2.80;1.57;;;6.50;99.90;;;;;;5073019;28;20452;-77
2020/12/30 09:51:42;;;;;;;3.93;1.50;;;6.70;99.90;;;;;;5072357;28;20956;-75
2020/12/30 09:54:09;;;;;;;2.17;1.30;;;6.90;99.90;;;;;;5072057;28;20568;-76
2020/12/30 09:56:36;;;;;;;1.97;1.20;;;7.10;99.90;;;;;;5072743;28;20528;-77
2020/12/30 09:59:03;;;;;;;1.23;1.10;;;7.10;97.00;;;;;;5072271;28;20446;-75
2020/12/30 10:01:30;;;;;;;1.60;1.50;;;7.30;1.00;;;;;;5072640;28;20449;-76
2020/12/30 10:03:57;;;;;;;3.83;1.50;;;6.90;1.00;;;;;;5071507;28;20746;-76
2020/12/30 10:06:23;;;;;;;3.57;1.10;;;6.50;1.00;;;;;;5072524;28;20460;-76
2020/12/30 10:08:50;;;;;;;5.20;1.20;;;6.60;1.00;;;;;;5072321;28;20540;-77
2020/12/30 10:11:19;;;;;;;2.53;1.23;;;6.50;1.00;;;;;;5072367;28;20517;-77
2020/12/30 10:13:45;;;;;;;3.40;1.20;;;7.10;99.90;;;;;;5071815;28;20917;-76
2020/12/30 10:16:11;;;;;;;1.30;1.10;;;6.90;99.90;;;;;;5088223;28;20445;-77
2020/12/30 10:18:38;;;;;;;4.03;1.20;;;7.20;10.60;;;;;;5092555;28;20487;-77
2020/12/30 10:21:04;;;;;;;1.70;1.20;;;7.20;1.00;;;;;;5092532;28;20533;-76
2020/12/30 10:23:31;;;;;;;1.50;1.10;;;6.80;1.00;;;;;;5092068;28;20481;-75
2020/12/30 10:25:57;;;;;;;2.13;1.53;;;7.10;99.90;;;;;;5091773;28;20542;-75
2020/12/30 10:28:24;;;;;;;4.67;1.93;;;7.40;99.90;;;;;;5092345;28;20531;-75
2020/12/30 10:30:51;;;;;;;2.20;1.80;;;7.30;99.90;;;;;;5092068;28;20532;-75
2020/12/30 10:33:17;;;;;;;3.07;1.63;;;7.10;99.90;;;;;;5091765;28;20458;-77
2020/12/30 10:35:44;;;;;;;1.60;1.40;;;7.20;99.90;;;;;;5091698;28;20576;-76
2020/12/30 10:38:10;;;;;;;2.20;1.43;;;6.80;99.90;;;;;;5092015;28;20822;-77
2020/12/30 10:40:36;;;;;;;2.00;1.30;;;7.10;1.00;;;;;;5092344;28;20472;-77
2020/12/30 10:43:03;;;;;;;5.50;3.73;;;7.40;1.00;;;;;;5091544;28;20998;-77
2020/12/30 10:45:31;;;;;;;1.83;1.10;;;7.10;1.00;;;;;;5091815;28;20484;-76
2020/12/30 10:47:58;;;;;;;2.03;1.40;;;7.10;1.00;;;;;;5091499;28;20813;-76
2020/12/30 10:50:24;;;;;;;1.50;0.93;;;6.60;99.90;;;;;;5091883;28;20851;-76
2020/12/30 10:52:51;;;;;;;1.63;0.90;;;6.50;99.90;;;;;;5091007;28;20539;-76
2020/12/30 10:55:18;;;;;;;2.80;1.00;;;6.40;99.90;;;;;;5091779;28;20479;-74
2020/12/30 10:57:45;;;;;;;3.30;1.13;;;6.40;99.90;;;;;;5091282;28;20488;-74
2020/12/30 11:00:11;;;;;;;1.00;0.80;;;6.70;99.90;;;;;;5087250;28;20954;-74
2020/12/30 11:02:39;;;;;;;2.70;1.00;;;6.70;99.90;;;;;;5070915;28;20524;-75
2020/12/30 11:05:05;;;;;;;2.43;1.10;;;6.30;99.90;;;;;;5071347;28;20552;-77
2020/12/30 11:07:32;;;;;;;1.63;1.00;;;6.20;1.00;;;;;;5071537;28;20449;-77
2020/12/30 11:09:58;;;;;;;2.47;1.00;;;6.10;99.90;;;;;;5070667;28;20685;-74
2020/12/30 11:12:24;;;;;;;2.83;0.90;;;6.00;1.00;;;;;;5071563;28;20863;-76
2020/12/30 11:14:51;;;;;;;1.33;0.80;;;6.10;1.00;;;;;;5070816;28;20859;-76
2020/12/30 11:17:17;;;;;;;2.67;1.00;;;6.10;1.00;;;;;;5071225;28;20576;-75
2020/12/30 11:19:45;;;;;;;1.30;0.73;;;6.50;43.40;;;;;;5070693;28;20540;-75
2020/12/30 11:22:11;;;;;;;1.30;0.83;;;6.40;99.90;;;;;;5071382;28;20442;-76
2020/12/30 11:24:38;;;;;;;1.00;0.90;;;6.70;99.90;;;;;;5070807;28;20461;-74
2020/12/30 11:27:04;;;;;;;2.67;1.10;;;6.60;1.00;;;;;;5071150;28;20983;-76
2020/12/30 11:29:31;;;;;;;1.60;0.83;;;6.60;99.90;;;;;;5070976;28;21004;-76
2020/12/30 11:31:58;;;;;;;1.13;1.00;;;6.60;99.90;;;;;;5070545;28;20453;-74
2020/12/30 11:34:24;;;;;;;1.70;0.77;;;6.60;35.30;;;;;;5070505;28;20487;-76
2020/12/30 11:36:52;;;;;;;1.20;1.00;;;6.80;1.00;;;;;;5070875;28;20524;-76
2020/12/30 11:39:18;;;;;;;2.17;0.80;;;6.70;1.00;;;;;;5070924;28;20579;-76
2020/12/30 11:41:49;;;;;;;1.30;0.97;;;6.80;1.00;;;;;;5070687;28;20468;-76
2020/12/30 11:44:15;;;;;;;1.50;0.90;;;6.60;99.90;;;;;;5071007;28;20481;-76
2020/12/30 11:46:42;;;;;;;1.80;0.90;;;6.70;99.90;;;;;;5070277;28;20521;-76
2020/12/30 11:49:08;;;;;;;3.30;0.83;;;6.90;99.90;;;;;;5071147;28;20445;-77
2020/12/30 11:51:38;;;;;;;2.00;1.20;;;6.80;99.90;;;;;;5070934;28;20445;-75
2020/12/30 11:54:05;;;;;;;1.00;0.70;;;6.70;1.00;;;;;;5070366;28;20567;-76
2020/12/30 11:56:32;;;;;;;1.70;0.87;;;6.60;1.00;;;;;;5070790;28;20587;-76
2020/12/30 11:58:58;;;;;;;1.57;1.00;;;6.50;99.90;;;;;;5070486;28;21139;-76
2020/12/30 12:01:32;;;;;;;0.97;0.70;;;6.50;1.00;;;;;;5073965;28;20449;-75
2020/12/30 12:03:59;;;;;;;1.93;0.90;;;6.50;99.90;;;;;;5082152;28;20741;-74
2020/12/30 12:06:25;;;;;;;1.33;0.83;;;6.70;1.00;;;;;;5086821;28;20453;-75
2020/12/30 12:08:52;;;;;;;2.60;1.17;;;6.50;1.00;;;;;;5077977;28;20531;-75
2020/12/30 12:11:20;;;;;;;1.97;0.90;;;6.40;1.00;;;;;;5071184;28;20477;-75
2020/12/30 12:13:46;;;;;;;0.70;0.70;;;6.50;99.90;;;;;;5069686;28;20445;-75
2020/12/30 12:16:13;;;;;;;1.47;1.00;;;6.60;99.90;;;;;;5070973;28;20450;-75
2020/12/30 12:18:39;;;;;;;1.97;1.43;;;6.50;1.00;;;;;;5069848;28;20481;-75
2020/12/30 12:21:07;;;;;;;2.27;1.33;;;6.30;1.00;;;;;;5070616;28;20469;-75
2020/12/30 12:23:33;;;;;;;3.70;1.40;;;6.30;99.90;;;;;;5070439;28;20505;-76
2020/12/30 12:26:00;;;;;;;2.07;1.30;;;6.30;99.90;;;;;;5069936;28;20872;-75
2020/12/30 12:28:56;;;;;;;2.73;1.90;;;6.80;1.00;;;;;;5070354;28;20453;-76
2020/12/30 12:31:23;;;;;;;3.63;1.37;;;6.70;1.00;;;;;;5070619;28;20489;-75
2020/12/30 12:33:49;;;;;;;4.03;1.90;;;6.60;1.00;;;;;;5068505;28;20540;-74
2020/12/30 12:36:17;;;;;;;4.17;1.60;;;6.60;99.90;;;;;;5070186;28;20540;-75
2020/12/30 12:38:43;;;;;;;1.50;1.10;;;6.50;1.00;;;;;;5069763;28;20506;-75
2020/12/30 12:41:10;;;;;;;2.93;1.63;;;6.40;99.90;;;;;;5070193;28;20532;-75
2020/12/30 12:43:37;;;;;;;4.27;1.47;;;6.60;99.90;;;;;;5069756;28;21282;-74
2020/12/30 12:46:13;;;;;;;3.53;1.97;;;6.60;99.90;;;;;;5070253;28;20514;-76
2020/12/30 12:48:39;;;;;;;1.90;1.50;;;7.50;99.90;;;;;;5069653;28;20449;-76
2020/12/30 12:51:07;;;;;;;3.33;1.87;;;7.40;99.90;;;;;;5070673;28;20945;-75
2020/12/30 12:53:34;;;;;;;2.80;1.50;;;7.30;99.90;;;;;;5069753;28;20535;-76
2020/12/30 12:56:00;;;;;;;1.47;1.33;;;7.00;1.00;;;;;;5069952;28;20564;-76
2020/12/30 12:58:28;;;;;;;3.67;1.63;;;7.20;1.00;;;;;;5069908;28;20574;-76
2020/12/30 13:00:56;;;;;;;3.07;0.93;;;;;;;;;;5069589;28;20503;-76
2020/12/30 13:03:22;;;;;;;4.67;1.63;;;;;;;;;;5069665;28;20861;-77
2020/12/30 13:05:49;;;;;;;2.57;1.50;;;;;;;;;;5069613;28;20477;-76
2020/12/30 13:08:16;;;;;;;3.73;1.20;;;;;;;;;;5069860;28;20459;-76